sensor_id;sensor_type;location;lat;lon;timestamp;P1;durP1;ratioP1;P2;durP2;ratioP2
59922;SDS011;45778;51.142;3.732;2023-02-28T00:00:46;10.77;;;5.18;;
59922;SDS011;45778;51.142;3.732;2023-02-28T00:03:12;11.98;;;5.63;;
59922;SDS011;45778;51.142;3.732;2023-02-28T00:05:38;10.45;;;5.47;;
59922;SDS011;45778;51.142;3.732;2023-02-28T00:08:04;7.53;;;5.25;;
59922;SDS011;45778;51.142;3.732;2023-02-28T00:10:30;6.55;;;4.88;;
59922;SDS011;45778;51.142;3.732;2023-02-28T00:12:58;9.57;;;5.25;;
59922;SDS011;45778;51.142;3.732;2023-02-28T00:15:27;9.60;;;5.25;;
59922;SDS011;45778;51.142;3.732;2023-02-28T00:17:53;13.10;;;5.32;;
59922;SDS011;45778;51.142;3.732;2023-02-28T00:20:19;8.95;;;5.15;;
59922;SDS011;45778;51.142;3.732;2023-02-28T00:22:46;9.07;;;5.47;;
59922;SDS011;45778;51.142;3.732;2023-02-28T00:25:14;8.55;;;5.38;;
59922;SDS011;45778;51.142;3.732;2023-02-28T00:27:42;7.32;;;5.00;;
59922;SDS011;45778;51.142;3.732;2023-02-28T00:30:09;9.43;;;5.43;;
59922;SDS011;45778;51.142;3.732;2023-02-28T00:32:37;11.27;;;5.07;;
59922;SDS011;45778;51.142;3.732;2023-02-28T00:35:03;8.55;;;4.97;;
59922;SDS011;45778;51.142;3.732;2023-02-28T00:37:29;8.25;;;5.45;;
59922;SDS011;45778;51.142;3.732;2023-02-28T00:39:55;9.45;;;5.40;;
59922;SDS011;45778;51.142;3.732;2023-02-28T00:42:21;8.68;;;5.43;;
59922;SDS011;45778;51.142;3.732;2023-02-28T00:44:47;6.97;;;4.90;;
59922;SDS011;45778;51.142;3.732;2023-02-28T00:47:13;9.85;;;6.03;;
59922;SDS011;45778;51.142;3.732;2023-02-28T00:49:39;7.35;;;5.13;;
59922;SDS011;45778;51.142;3.732;2023-02-28T00:52:05;6.72;;;5.20;;
59922;SDS011;45778;51.142;3.732;2023-02-28T00:54:31;7.15;;;5.10;;
59922;SDS011;45778;51.142;3.732;2023-02-28T00:56:56;8.63;;;5.18;;
59922;SDS011;45778;51.142;3.732;2023-02-28T00:59:22;6.90;;;5.10;;
59922;SDS011;45778;51.142;3.732;2023-02-28T01:01:48;9.02;;;5.75;;
59922;SDS011;45778;51.142;3.732;2023-02-28T01:04:14;8.23;;;5.43;;
59922;SDS011;45778;51.142;3.732;2023-02-28T01:06:40;12.45;;;5.93;;
59922;SDS011;45778;51.142;3.732;2023-02-28T01:09:06;9.55;;;5.43;;
59922;SDS011;45778;51.142;3.732;2023-02-28T01:11:33;7.60;;;5.25;;
59922;SDS011;45778;51.142;3.732;2023-02-28T01:13:59;9.77;;;4.88;;
59922;SDS011;45778;51.142;3.732;2023-02-28T01:16:26;8.45;;;5.50;;
59922;SDS011;45778;51.142;3.732;2023-02-28T01:18:52;10.05;;;5.80;;
59922;SDS011;45778;51.142;3.732;2023-02-28T01:21:19;9.70;;;5.32;;
59922;SDS011;45778;51.142;3.732;2023-02-28T01:23:46;7.78;;;5.90;;
59922;SDS011;45778;51.142;3.732;2023-02-28T01:26:16;9.05;;;5.47;;
59922;SDS011;45778;51.142;3.732;2023-02-28T01:28:43;9.02;;;5.47;;
59922;SDS011;45778;51.142;3.732;2023-02-28T01:31:10;7.68;;;5.55;;
59922;SDS011;45778;51.142;3.732;2023-02-28T01:33:36;9.77;;;5.47;;
59922;SDS011;45778;51.142;3.732;2023-02-28T01:36:03;12.05;;;6.47;;
59922;SDS011;45778;51.142;3.732;2023-02-28T01:38:31;11.00;;;6.05;;
59922;SDS011;45778;51.142;3.732;2023-02-28T01:40:58;14.60;;;6.55;;
59922;SDS011;45778;51.142;3.732;2023-02-28T01:43:26;9.93;;;6.43;;
59922;SDS011;45778;51.142;3.732;2023-02-28T01:45:54;7.70;;;5.85;;
59922;SDS011;45778;51.142;3.732;2023-02-28T01:48:22;11.18;;;6.25;;
59922;SDS011;45778;51.142;3.732;2023-02-28T01:50:51;7.55;;;6.15;;
59922;SDS011;45778;51.142;3.732;2023-02-28T01:53:21;8.45;;;6.05;;
59922;SDS011;45778;51.142;3.732;2023-02-28T01:55:52;11.25;;;5.93;;
59922;SDS011;45778;51.142;3.732;2023-02-28T01:58:19;9.27;;;6.38;;
59922;SDS011;45778;51.142;3.732;2023-02-28T02:00:45;10.10;;;6.60;;
59922;SDS011;45778;51.142;3.732;2023-02-28T02:03:15;10.00;;;6.55;;
59922;SDS011;45778;51.142;3.732;2023-02-28T02:05:46;9.52;;;6.10;;
59922;SDS011;45778;51.142;3.732;2023-02-28T02:08:13;9.45;;;6.60;;
59922;SDS011;45778;51.142;3.732;2023-02-28T02:10:44;10.77;;;6.80;;
59922;SDS011;45778;51.142;3.732;2023-02-28T02:18:41;8.38;;;6.35;;
59922;SDS011;45778;51.142;3.732;2023-02-28T02:41:17;17.27;;;7.20;;
59922;SDS011;45778;51.142;3.732;2023-02-28T02:43:48;10.32;;;6.80;;
59922;SDS011;45778;51.142;3.732;2023-02-28T02:47:01;10.40;;;6.47;;
59922;SDS011;45778;51.142;3.732;2023-02-28T02:49:09;11.07;;;7.22;;
59922;SDS011;45778;51.142;3.732;2023-02-28T02:51:39;10.75;;;6.90;;
59922;SDS011;45778;51.142;3.732;2023-02-28T02:54:13;8.95;;;6.80;;
59922;SDS011;45778;51.142;3.732;2023-02-28T02:56:44;10.32;;;6.72;;
59922;SDS011;45778;51.142;3.732;2023-02-28T02:59:13;9.57;;;7.00;;
59922;SDS011;45778;51.142;3.732;2023-02-28T03:04:17;14.10;;;7.32;;
59922;SDS011;45778;51.142;3.732;2023-02-28T03:06:45;11.07;;;6.50;;
59922;SDS011;45778;51.142;3.732;2023-02-28T03:09:12;11.57;;;7.22;;
59922;SDS011;45778;51.142;3.732;2023-02-28T03:11:38;10.05;;;6.43;;
59922;SDS011;45778;51.142;3.732;2023-02-28T03:27:24;10.02;;;7.05;;
59922;SDS011;45778;51.142;3.732;2023-02-28T03:32:33;10.70;;;7.00;;
59922;SDS011;45778;51.142;3.732;2023-02-28T03:35:08;11.23;;;7.60;;
59922;SDS011;45778;51.142;3.732;2023-02-28T03:37:46;15.18;;;7.38;;
59922;SDS011;45778;51.142;3.732;2023-02-28T03:40:23;11.57;;;7.38;;
59922;SDS011;45778;51.142;3.732;2023-02-28T03:42:54;10.20;;;6.85;;
59922;SDS011;45778;51.142;3.732;2023-02-28T03:45:28;12.70;;;6.45;;
59922;SDS011;45778;51.142;3.732;2023-02-28T03:48:08;10.90;;;7.95;;
59922;SDS011;45778;51.142;3.732;2023-02-28T03:50:40;8.52;;;5.68;;
59922;SDS011;45778;51.142;3.732;2023-02-28T03:55:56;10.93;;;5.82;;
59922;SDS011;45778;51.142;3.732;2023-02-28T03:58:32;10.93;;;6.50;;
59922;SDS011;45778;51.142;3.732;2023-02-28T04:01:03;8.60;;;5.93;;
59922;SDS011;45778;51.142;3.732;2023-02-28T04:03:36;12.00;;;7.03;;
59922;SDS011;45778;51.142;3.732;2023-02-28T04:06:02;11.65;;;5.75;;
59922;SDS011;45778;51.142;3.732;2023-02-28T04:08:29;10.60;;;5.45;;
59922;SDS011;45778;51.142;3.732;2023-02-28T04:10:57;11.75;;;5.88;;
59922;SDS011;45778;51.142;3.732;2023-02-28T04:13:33;9.02;;;5.50;;
59922;SDS011;45778;51.142;3.732;2023-02-28T04:15:59;11.05;;;6.38;;
59922;SDS011;45778;51.142;3.732;2023-02-28T04:18:25;9.30;;;5.22;;
59922;SDS011;45778;51.142;3.732;2023-02-28T04:20:50;11.35;;;6.07;;
59922;SDS011;45778;51.142;3.732;2023-02-28T04:23:16;7.43;;;5.57;;
59922;SDS011;45778;51.142;3.732;2023-02-28T04:25:42;11.20;;;5.53;;
59922;SDS011;45778;51.142;3.732;2023-02-28T04:28:08;6.60;;;5.30;;
59922;SDS011;45778;51.142;3.732;2023-02-28T04:30:34;8.75;;;5.28;;
59922;SDS011;45778;51.142;3.732;2023-02-28T04:33:01;9.35;;;5.32;;
59922;SDS011;45778;51.142;3.732;2023-02-28T04:35:26;10.50;;;6.10;;
59922;SDS011;45778;51.142;3.732;2023-02-28T04:37:52;9.45;;;5.35;;
59922;SDS011;45778;51.142;3.732;2023-02-28T04:40:18;9.32;;;5.68;;
59922;SDS011;45778;51.142;3.732;2023-02-28T04:42:43;7.72;;;5.35;;
59922;SDS011;45778;51.142;3.732;2023-02-28T04:45:09;9.07;;;5.47;;
59922;SDS011;45778;51.142;3.732;2023-02-28T04:47:35;10.48;;;5.45;;
59922;SDS011;45778;51.142;3.732;2023-02-28T04:50:01;8.07;;;5.13;;
59922;SDS011;45778;51.142;3.732;2023-02-28T04:52:28;9.30;;;5.30;;
59922;SDS011;45778;51.142;3.732;2023-02-28T04:54:54;9.55;;;5.25;;
59922;SDS011;45778;51.142;3.732;2023-02-28T04:57:20;10.45;;;6.05;;
59922;SDS011;45778;51.142;3.732;2023-02-28T04:59:45;11.23;;;6.05;;
59922;SDS011;45778;51.142;3.732;2023-02-28T05:02:11;9.05;;;5.30;;
59922;SDS011;45778;51.142;3.732;2023-02-28T05:04:37;10.23;;;5.25;;
59922;SDS011;45778;51.142;3.732;2023-02-28T05:07:03;7.57;;;4.90;;
59922;SDS011;45778;51.142;3.732;2023-02-28T05:09:28;8.43;;;5.50;;
59922;SDS011;45778;51.142;3.732;2023-02-28T05:11:55;9.48;;;5.22;;
59922;SDS011;45778;51.142;3.732;2023-02-28T05:14:21;7.70;;;5.20;;
59922;SDS011;45778;51.142;3.732;2023-02-28T05:16:47;7.90;;;4.97;;
59922;SDS011;45778;51.142;3.732;2023-02-28T05:19:12;6.75;;;5.20;;
59922;SDS011;45778;51.142;3.732;2023-02-28T05:21:39;7.50;;;5.25;;
59922;SDS011;45778;51.142;3.732;2023-02-28T05:24:08;8.73;;;5.07;;
59922;SDS011;45778;51.142;3.732;2023-02-28T05:26:37;8.90;;;4.82;;
59922;SDS011;45778;51.142;3.732;2023-02-28T05:29:04;11.73;;;5.72;;
59922;SDS011;45778;51.142;3.732;2023-02-28T05:31:30;11.00;;;5.53;;
59922;SDS011;45778;51.142;3.732;2023-02-28T05:33:56;10.10;;;5.13;;
59922;SDS011;45778;51.142;3.732;2023-02-28T05:36:22;7.07;;;5.20;;
59922;SDS011;45778;51.142;3.732;2023-02-28T05:38:48;12.30;;;5.70;;
59922;SDS011;45778;51.142;3.732;2023-02-28T05:41:15;8.80;;;5.32;;
59922;SDS011;45778;51.142;3.732;2023-02-28T05:43:41;13.05;;;5.90;;
59922;SDS011;45778;51.142;3.732;2023-02-28T05:46:08;9.60;;;5.00;;
59922;SDS011;45778;51.142;3.732;2023-02-28T05:48:35;8.73;;;5.72;;
59922;SDS011;45778;51.142;3.732;2023-02-28T05:51:02;9.60;;;5.57;;
59922;SDS011;45778;51.142;3.732;2023-02-28T05:53:29;9.48;;;5.72;;
59922;SDS011;45778;51.142;3.732;2023-02-28T05:55:55;10.50;;;6.60;;
59922;SDS011;45778;51.142;3.732;2023-02-28T05:58:21;11.25;;;6.38;;
59922;SDS011;45778;51.142;3.732;2023-02-28T06:00:47;9.45;;;5.93;;
59922;SDS011;45778;51.142;3.732;2023-02-28T06:03:14;10.23;;;6.60;;
59922;SDS011;45778;51.142;3.732;2023-02-28T06:05:39;10.30;;;6.45;;
59922;SDS011;45778;51.142;3.732;2023-02-28T06:08:05;9.43;;;5.68;;
59922;SDS011;45778;51.142;3.732;2023-02-28T06:10:32;8.02;;;5.63;;
59922;SDS011;45778;51.142;3.732;2023-02-28T06:13:05;11.07;;;6.55;;
59922;SDS011;45778;51.142;3.732;2023-02-28T06:15:30;8.77;;;6.22;;
59922;SDS011;45778;51.142;3.732;2023-02-28T06:17:56;9.35;;;5.75;;
59922;SDS011;45778;51.142;3.732;2023-02-28T06:20:23;8.32;;;5.30;;
59922;SDS011;45778;51.142;3.732;2023-02-28T06:22:49;10.40;;;6.20;;
59922;SDS011;45778;51.142;3.732;2023-02-28T06:25:16;9.48;;;6.38;;
59922;SDS011;45778;51.142;3.732;2023-02-28T06:27:42;11.07;;;6.47;;
59922;SDS011;45778;51.142;3.732;2023-02-28T06:30:09;10.73;;;6.55;;
59922;SDS011;45778;51.142;3.732;2023-02-28T06:32:36;11.27;;;6.90;;
59922;SDS011;45778;51.142;3.732;2023-02-28T06:35:02;12.57;;;6.30;;
59922;SDS011;45778;51.142;3.732;2023-02-28T06:37:28;9.98;;;6.47;;
59922;SDS011;45778;51.142;3.732;2023-02-28T06:39:55;12.52;;;6.10;;
59922;SDS011;45778;51.142;3.732;2023-02-28T06:42:21;9.20;;;5.35;;
59922;SDS011;45778;51.142;3.732;2023-02-28T06:44:50;9.20;;;5.95;;
59922;SDS011;45778;51.142;3.732;2023-02-28T06:47:16;12.18;;;6.32;;
59922;SDS011;45778;51.142;3.732;2023-02-28T06:49:42;10.63;;;6.07;;
59922;SDS011;45778;51.142;3.732;2023-02-28T06:52:07;8.80;;;5.55;;
59922;SDS011;45778;51.142;3.732;2023-02-28T06:54:35;9.27;;;4.78;;
59922;SDS011;45778;51.142;3.732;2023-02-28T06:57:02;7.80;;;4.97;;
59922;SDS011;45778;51.142;3.732;2023-02-28T06:59:28;11.00;;;5.15;;
59922;SDS011;45778;51.142;3.732;2023-02-28T07:01:53;7.80;;;4.10;;
59922;SDS011;45778;51.142;3.732;2023-02-28T07:04:20;8.95;;;5.13;;
59922;SDS011;45778;51.142;3.732;2023-02-28T07:06:46;8.55;;;5.25;;
59922;SDS011;45778;51.142;3.732;2023-02-28T07:09:12;10.55;;;4.93;;
59922;SDS011;45778;51.142;3.732;2023-02-28T07:11:39;10.85;;;6.65;;
59922;SDS011;45778;51.142;3.732;2023-02-28T07:14:05;9.13;;;5.25;;
59922;SDS011;45778;51.142;3.732;2023-02-28T07:16:32;7.07;;;4.40;;
59922;SDS011;45778;51.142;3.732;2023-02-28T07:18:58;9.85;;;6.18;;
59922;SDS011;45778;51.142;3.732;2023-02-28T07:21:24;9.50;;;5.53;;
59922;SDS011;45778;51.142;3.732;2023-02-28T07:23:50;16.25;;;8.82;;
59922;SDS011;45778;51.142;3.732;2023-02-28T07:26:18;13.90;;;6.07;;
59922;SDS011;45778;51.142;3.732;2023-02-28T07:28:45;5.20;;;3.28;;
59922;SDS011;45778;51.142;3.732;2023-02-28T07:31:12;15.85;;;7.72;;
59922;SDS011;45778;51.142;3.732;2023-02-28T07:33:42;8.40;;;4.70;;
59922;SDS011;45778;51.142;3.732;2023-02-28T07:36:09;9.85;;;3.28;;
59922;SDS011;45778;51.142;3.732;2023-02-28T07:38:40;4.43;;;1.92;;
59922;SDS011;45778;51.142;3.732;2023-02-28T07:41:07;4.60;;;2.45;;
59922;SDS011;45778;51.142;3.732;2023-02-28T07:43:33;4.50;;;1.85;;
59922;SDS011;45778;51.142;3.732;2023-02-28T07:46:07;5.78;;;2.42;;
59922;SDS011;45778;51.142;3.732;2023-02-28T07:48:34;4.97;;;2.30;;
59922;SDS011;45778;51.142;3.732;2023-02-28T07:51:00;3.50;;;2.30;;
59922;SDS011;45778;51.142;3.732;2023-02-28T07:53:27;4.00;;;2.03;;
59922;SDS011;45778;51.142;3.732;2023-02-28T07:55:57;5.07;;;2.95;;
59922;SDS011;45778;51.142;3.732;2023-02-28T07:58:24;4.80;;;1.67;;
59922;SDS011;45778;51.142;3.732;2023-02-28T08:00:51;3.03;;;1.58;;
59922;SDS011;45778;51.142;3.732;2023-02-28T08:03:18;2.35;;;1.20;;
59922;SDS011;45778;51.142;3.732;2023-02-28T08:05:44;4.55;;;2.17;;
59922;SDS011;45778;51.142;3.732;2023-02-28T08:08:10;6.55;;;2.05;;
59922;SDS011;45778;51.142;3.732;2023-02-28T08:10:36;2.63;;;1.65;;
59922;SDS011;45778;51.142;3.732;2023-02-28T08:13:02;5.00;;;1.58;;
59922;SDS011;45778;51.142;3.732;2023-02-28T08:15:28;3.42;;;1.73;;
59922;SDS011;45778;51.142;3.732;2023-02-28T08:17:53;4.20;;;2.30;;
59922;SDS011;45778;51.142;3.732;2023-02-28T08:20:21;6.82;;;2.00;;
59922;SDS011;45778;51.142;3.732;2023-02-28T08:22:47;5.78;;;1.80;;
59922;SDS011;45778;51.142;3.732;2023-02-28T08:25:13;5.40;;;2.30;;
59922;SDS011;45778;51.142;3.732;2023-02-28T08:27:39;6.97;;;2.13;;
59922;SDS011;45778;51.142;3.732;2023-02-28T08:30:05;5.88;;;2.08;;
59922;SDS011;45778;51.142;3.732;2023-02-28T08:32:32;5.15;;;2.67;;
59922;SDS011;45778;51.142;3.732;2023-02-28T08:34:58;6.32;;;1.98;;
59922;SDS011;45778;51.142;3.732;2023-02-28T08:37:24;6.00;;;2.50;;
59922;SDS011;45778;51.142;3.732;2023-02-28T08:39:50;12.65;;;6.35;;
59922;SDS011;45778;51.142;3.732;2023-02-28T08:42:16;13.30;;;6.22;;
59922;SDS011;45778;51.142;3.732;2023-02-28T08:44:41;14.90;;;7.55;;
59922;SDS011;45778;51.142;3.732;2023-02-28T08:47:07;17.65;;;9.50;;
59922;SDS011;45778;51.142;3.732;2023-02-28T08:49:33;13.93;;;7.55;;
59922;SDS011;45778;51.142;3.732;2023-02-28T08:51:59;15.25;;;8.55;;
59922;SDS011;45778;51.142;3.732;2023-02-28T08:54:24;17.58;;;8.98;;
59922;SDS011;45778;51.142;3.732;2023-02-28T08:56:50;11.07;;;6.35;;
59922;SDS011;45778;51.142;3.732;2023-02-28T08:59:16;11.40;;;4.10;;
59922;SDS011;45778;51.142;3.732;2023-02-28T09:01:41;10.25;;;3.42;;
59922;SDS011;45778;51.142;3.732;2023-02-28T09:04:08;6.10;;;2.50;;
59922;SDS011;45778;51.142;3.732;2023-02-28T09:06:35;2.60;;;1.75;;
59922;SDS011;45778;51.142;3.732;2023-02-28T09:09:01;9.45;;;4.40;;
59922;SDS011;45778;51.142;3.732;2023-02-28T09:11:29;6.45;;;3.13;;
59922;SDS011;45778;51.142;3.732;2023-02-28T09:13:55;9.27;;;4.30;;
59922;SDS011;45778;51.142;3.732;2023-02-28T09:16:20;13.93;;;5.88;;
59922;SDS011;45778;51.142;3.732;2023-02-28T09:18:46;20.55;;;7.88;;
59922;SDS011;45778;51.142;3.732;2023-02-28T09:21:13;19.08;;;10.60;;
59922;SDS011;45778;51.142;3.732;2023-02-28T09:23:41;7.03;;;4.30;;
59922;SDS011;45778;51.142;3.732;2023-02-28T09:26:07;5.65;;;3.35;;
59922;SDS011;45778;51.142;3.732;2023-02-28T09:28:37;5.13;;;3.15;;
59922;SDS011;45778;51.142;3.732;2023-02-28T09:31:03;5.07;;;3.05;;
59922;SDS011;45778;51.142;3.732;2023-02-28T09:33:29;5.50;;;3.45;;
59922;SDS011;45778;51.142;3.732;2023-02-28T09:35:59;5.85;;;3.13;;
59922;SDS011;45778;51.142;3.732;2023-02-28T09:38:26;7.25;;;3.35;;
59922;SDS011;45778;51.142;3.732;2023-02-28T09:40:53;9.13;;;5.22;;
59922;SDS011;45778;51.142;3.732;2023-02-28T09:43:24;7.13;;;3.38;;
59922;SDS011;45778;51.142;3.732;2023-02-28T09:45:55;5.45;;;3.47;;
59922;SDS011;45778;51.142;3.732;2023-02-28T09:48:32;3.97;;;2.97;;
59922;SDS011;45778;51.142;3.732;2023-02-28T09:54:08;8.02;;;3.80;;
59922;SDS011;45778;51.142;3.732;2023-02-28T09:56:44;6.35;;;4.10;;
59922;SDS011;45778;51.142;3.732;2023-02-28T10:10:03;4.03;;;2.10;;
59922;SDS011;45778;51.142;3.732;2023-02-28T10:12:40;7.78;;;2.60;;
59922;SDS011;45778;51.142;3.732;2023-02-28T10:15:13;6.72;;;2.67;;
59922;SDS011;45778;51.142;3.732;2023-02-28T10:17:42;4.53;;;2.47;;
59922;SDS011;45778;51.142;3.732;2023-02-28T10:20:17;2.60;;;1.83;;
59922;SDS011;45778;51.142;3.732;2023-02-28T10:22:53;2.53;;;1.33;;
59922;SDS011;45778;51.142;3.732;2023-02-28T10:25:25;3.30;;;1.63;;
59922;SDS011;45778;51.142;3.732;2023-02-28T10:27:54;3.50;;;1.70;;
59922;SDS011;45778;51.142;3.732;2023-02-28T10:30:26;3.58;;;2.05;;
59922;SDS011;45778;51.142;3.732;2023-02-28T10:32:53;2.13;;;1.13;;
59922;SDS011;45778;51.142;3.732;2023-02-28T10:35:23;4.07;;;2.17;;
59922;SDS011;45778;51.142;3.732;2023-02-28T10:37:54;3.20;;;1.95;;
59922;SDS011;45778;51.142;3.732;2023-02-28T10:40:27;4.75;;;2.25;;
59922;SDS011;45778;51.142;3.732;2023-02-28T10:43:03;4.72;;;2.22;;
59922;SDS011;45778;51.142;3.732;2023-02-28T10:45:33;4.18;;;1.60;;
59922;SDS011;45778;51.142;3.732;2023-02-28T10:55:37;5.35;;;4.20;;
59922;SDS011;45778;51.142;3.732;2023-02-28T10:58:10;6.80;;;4.28;;
59922;SDS011;45778;51.142;3.732;2023-02-28T11:00:47;9.05;;;2.60;;
59922;SDS011;45778;51.142;3.732;2023-02-28T11:03:29;9.10;;;3.10;;
59922;SDS011;45778;51.142;3.732;2023-02-28T11:05:57;3.90;;;2.60;;
59922;SDS011;45778;51.142;3.732;2023-02-28T11:08:24;9.45;;;3.17;;
59922;SDS011;45778;51.142;3.732;2023-02-28T11:10:54;13.77;;;2.95;;
59922;SDS011;45778;51.142;3.732;2023-02-28T11:13:32;4.70;;;2.30;;
59922;SDS011;45778;51.142;3.732;2023-02-28T11:16:00;7.72;;;3.60;;
59922;SDS011;45778;51.142;3.732;2023-02-28T11:18:41;6.47;;;3.17;;
59922;SDS011;45778;51.142;3.732;2023-02-28T11:21:08;5.18;;;2.88;;
59922;SDS011;45778;51.142;3.732;2023-02-28T11:23:40;4.22;;;2.20;;
59922;SDS011;45778;51.142;3.732;2023-02-28T11:26:06;9.68;;;2.72;;
59922;SDS011;45778;51.142;3.732;2023-02-28T11:28:36;13.95;;;4.35;;
59922;SDS011;45778;51.142;3.732;2023-02-28T11:33:44;11.20;;;3.42;;
59922;SDS011;45778;51.142;3.732;2023-02-28T11:38:50;4.85;;;2.30;;
59922;SDS011;45778;51.142;3.732;2023-02-28T11:46:54;2.47;;;1.55;;
59922;SDS011;45778;51.142;3.732;2023-02-28T11:49:36;4.68;;;2.20;;
59922;SDS011;45778;51.142;3.732;2023-02-28T11:52:20;4.70;;;1.92;;
59922;SDS011;45778;51.142;3.732;2023-02-28T12:16:24;6.53;;;1.95;;
59922;SDS011;45778;51.142;3.732;2023-02-28T12:22:03;3.83;;;2.80;;
59922;SDS011;45778;51.142;3.732;2023-02-28T12:27:15;4.45;;;2.08;;
59922;SDS011;45778;51.142;3.732;2023-02-28T12:29:49;3.40;;;2.10;;
59922;SDS011;45778;51.142;3.732;2023-02-28T12:32:45;2.35;;;1.20;;
59922;SDS011;45778;51.142;3.732;2023-02-28T12:35:24;3.05;;;1.40;;
59922;SDS011;45778;51.142;3.732;2023-02-28T12:38:17;5.43;;;2.80;;
59922;SDS011;45778;51.142;3.732;2023-02-28T12:40:49;5.18;;;1.52;;
59922;SDS011;45778;51.142;3.732;2023-02-28T12:43:37;3.58;;;1.80;;
59922;SDS011;45778;51.142;3.732;2023-02-28T12:46:09;4.22;;;1.85;;
59922;SDS011;45778;51.142;3.732;2023-02-28T12:48:48;3.22;;;1.45;;
59922;SDS011;45778;51.142;3.732;2023-02-28T12:51:20;3.25;;;1.30;;
59922;SDS011;45778;51.142;3.732;2023-02-28T12:59:56;6.03;;;1.40;;
59922;SDS011;45778;51.142;3.732;2023-02-28T13:10:23;9.00;;;4.00;;
59922;SDS011;45778;51.142;3.732;2023-02-28T13:12:53;5.63;;;3.20;;
59922;SDS011;45778;51.142;3.732;2023-02-28T13:15:24;12.85;;;4.30;;
59922;SDS011;45778;51.142;3.732;2023-02-28T13:17:54;4.25;;;2.13;;
59922;SDS011;45778;51.142;3.732;2023-02-28T13:20:26;1.80;;;1.30;;
59922;SDS011;45778;51.142;3.732;2023-02-28T13:22:54;6.25;;;1.95;;
59922;SDS011;45778;51.142;3.732;2023-02-28T13:27:48;2.63;;;1.50;;
59922;SDS011;45778;51.142;3.732;2023-02-28T13:38:34;7.32;;;1.77;;
59922;SDS011;45778;51.142;3.732;2023-02-28T13:41:35;6.80;;;3.13;;
59922;SDS011;45778;51.142;3.732;2023-02-28T13:46:31;6.25;;;2.50;;
59922;SDS011;45778;51.142;3.732;2023-02-28T14:00:32;5.80;;;2.22;;
59922;SDS011;45778;51.142;3.732;2023-02-28T14:03:43;3.47;;;2.03;;
59922;SDS011;45778;51.142;3.732;2023-02-28T14:06:22;9.73;;;3.50;;
59922;SDS011;45778;51.142;3.732;2023-02-28T14:08:53;2.75;;;1.58;;
59922;SDS011;45778;51.142;3.732;2023-02-28T14:11:35;4.82;;;1.75;;
59922;SDS011;45778;51.142;3.732;2023-02-28T14:14:03;4.07;;;1.60;;
59922;SDS011;45778;51.142;3.732;2023-02-28T14:16:46;3.22;;;1.60;;
59922;SDS011;45778;51.142;3.732;2023-02-28T14:21:49;4.13;;;1.60;;
59922;SDS011;45778;51.142;3.732;2023-02-28T14:26:56;4.43;;;2.05;;
59922;SDS011;45778;51.142;3.732;2023-02-28T14:38:47;2.75;;;1.73;;
59922;SDS011;45778;51.142;3.732;2023-02-28T14:41:22;2.42;;;1.25;;
59922;SDS011;45778;51.142;3.732;2023-02-28T14:43:54;2.80;;;1.48;;
59922;SDS011;45778;51.142;3.732;2023-02-28T14:46:22;3.28;;;1.50;;
59922;SDS011;45778;51.142;3.732;2023-02-28T14:48:55;6.55;;;2.42;;
59922;SDS011;45778;51.142;3.732;2023-02-28T14:51:21;4.28;;;2.03;;
59922;SDS011;45778;51.142;3.732;2023-02-28T14:53:50;6.10;;;1.88;;
59922;SDS011;45778;51.142;3.732;2023-02-28T14:56:22;2.13;;;1.27;;
59922;SDS011;45778;51.142;3.732;2023-02-28T14:58:54;2.42;;;2.08;;
59922;SDS011;45778;51.142;3.732;2023-02-28T15:01:21;2.53;;;1.63;;
59922;SDS011;45778;51.142;3.732;2023-02-28T15:03:56;3.83;;;1.80;;
59922;SDS011;45778;51.142;3.732;2023-02-28T15:06:23;2.33;;;1.95;;
59922;SDS011;45778;51.142;3.732;2023-02-28T15:09:06;2.28;;;1.65;;
59922;SDS011;45778;51.142;3.732;2023-02-28T15:11:33;5.15;;;1.67;;
59922;SDS011;45778;51.142;3.732;2023-02-28T15:14:00;3.42;;;1.67;;
59922;SDS011;45778;51.142;3.732;2023-02-28T15:16:28;3.42;;;1.70;;
59922;SDS011;45778;51.142;3.732;2023-02-28T15:18:57;4.65;;;1.98;;
59922;SDS011;45778;51.142;3.732;2023-02-28T15:21:36;28.67;;;14.57;;
59922;SDS011;45778;51.142;3.732;2023-02-28T15:26:42;3.50;;;1.60;;
59922;SDS011;45778;51.142;3.732;2023-02-28T15:29:19;5.72;;;2.05;;
59922;SDS011;45778;51.142;3.732;2023-02-28T15:31:48;3.08;;;1.77;;
59922;SDS011;45778;51.142;3.732;2023-02-28T15:34:38;3.95;;;1.70;;
59922;SDS011;45778;51.142;3.732;2023-02-28T15:42:37;4.35;;;2.90;;
59922;SDS011;45778;51.142;3.732;2023-02-28T15:45:03;3.40;;;2.03;;
59922;SDS011;45778;51.142;3.732;2023-02-28T15:47:29;4.07;;;2.40;;
59922;SDS011;45778;51.142;3.732;2023-02-28T15:50:03;3.92;;;2.97;;
59922;SDS011;45778;51.142;3.732;2023-02-28T15:55:26;3.97;;;2.40;;
59922;SDS011;45778;51.142;3.732;2023-02-28T15:57:54;13.02;;;3.97;;
59922;SDS011;45778;51.142;3.732;2023-02-28T16:00:26;4.07;;;3.00;;
59922;SDS011;45778;51.142;3.732;2023-02-28T16:02:53;3.95;;;1.98;;
59922;SDS011;45778;51.142;3.732;2023-02-28T16:05:21;3.28;;;1.88;;
59922;SDS011;45778;51.142;3.732;2023-02-28T16:07:53;4.70;;;2.25;;
59922;SDS011;45778;51.142;3.732;2023-02-28T16:10:21;4.50;;;2.15;;
59922;SDS011;45778;51.142;3.732;2023-02-28T16:12:52;3.20;;;2.90;;
59922;SDS011;45778;51.142;3.732;2023-02-28T16:15:22;5.38;;;2.72;;
59922;SDS011;45778;51.142;3.732;2023-02-28T16:17:50;3.88;;;2.22;;
59922;SDS011;45778;51.142;3.732;2023-02-28T16:20:21;3.67;;;2.20;;
59922;SDS011;45778;51.142;3.732;2023-02-28T16:22:47;3.60;;;2.00;;
59922;SDS011;45778;51.142;3.732;2023-02-28T16:25:13;5.93;;;2.58;;
59922;SDS011;45778;51.142;3.732;2023-02-28T16:27:44;4.45;;;2.50;;
59922;SDS011;45778;51.142;3.732;2023-02-28T16:30:24;4.03;;;2.53;;
59922;SDS011;45778;51.142;3.732;2023-02-28T16:32:51;4.85;;;2.83;;
59922;SDS011;45778;51.142;3.732;2023-02-28T16:35:20;5.57;;;3.42;;
59922;SDS011;45778;51.142;3.732;2023-02-28T16:37:46;4.65;;;2.90;;
59922;SDS011;45778;51.142;3.732;2023-02-28T16:40:22;6.22;;;2.60;;
59922;SDS011;45778;51.142;3.732;2023-02-28T16:42:51;4.93;;;3.00;;
59922;SDS011;45778;51.142;3.732;2023-02-28T16:45:24;4.25;;;2.67;;
59922;SDS011;45778;51.142;3.732;2023-02-28T16:47:52;6.32;;;4.07;;
59922;SDS011;45778;51.142;3.732;2023-02-28T16:50:20;6.85;;;4.65;;
59922;SDS011;45778;51.142;3.732;2023-02-28T16:52:50;5.78;;;4.80;;
59922;SDS011;45778;51.142;3.732;2023-02-28T16:55:20;7.78;;;5.72;;
59922;SDS011;45778;51.142;3.732;2023-02-28T16:57:51;8.00;;;4.68;;
59922;SDS011;45778;51.142;3.732;2023-02-28T17:00:18;6.03;;;2.90;;
59922;SDS011;45778;51.142;3.732;2023-02-28T17:02:44;6.45;;;4.03;;
59922;SDS011;45778;51.142;3.732;2023-02-28T17:05:10;5.10;;;3.65;;
59922;SDS011;45778;51.142;3.732;2023-02-28T17:07:37;11.52;;;4.43;;
59922;SDS011;45778;51.142;3.732;2023-02-28T17:10:23;21.40;;;10.20;;
59922;SDS011;45778;51.142;3.732;2023-02-28T17:12:51;4.68;;;3.28;;
59922;SDS011;45778;51.142;3.732;2023-02-28T17:15:18;6.43;;;3.03;;
59922;SDS011;45778;51.142;3.732;2023-02-28T17:17:44;6.03;;;3.10;;
59922;SDS011;45778;51.142;3.732;2023-02-28T17:20:12;20.67;;;11.63;;
59922;SDS011;45778;51.142;3.732;2023-02-28T17:22:40;12.50;;;8.20;;
59922;SDS011;45778;51.142;3.732;2023-02-28T17:25:05;12.85;;;8.27;;
59922;SDS011;45778;51.142;3.732;2023-02-28T17:27:32;6.72;;;4.72;;
59922;SDS011;45778;51.142;3.732;2023-02-28T17:29:58;5.43;;;3.50;;
59922;SDS011;45778;51.142;3.732;2023-02-28T17:32:24;7.05;;;3.33;;
59922;SDS011;45778;51.142;3.732;2023-02-28T17:34:50;6.15;;;3.47;;
59922;SDS011;45778;51.142;3.732;2023-02-28T17:37:16;4.47;;;3.33;;
59922;SDS011;45778;51.142;3.732;2023-02-28T17:39:42;14.35;;;8.55;;
59922;SDS011;45778;51.142;3.732;2023-02-28T17:42:07;13.98;;;7.93;;
59922;SDS011;45778;51.142;3.732;2023-02-28T17:44:33;12.13;;;6.82;;